Terminal Aerodrome Forecast
Issued by NWS

Home | Current Version | Previous Version | Text Only | Print | Product List | Glossary On
Versions: 1 2 3 4 5 6 7 8 9 10 11 12 13 14 15 16 17 18 19 20 21 22 23 24 25 26 27 28 29 30 31 32 33 34 35 36 37 38 39 40
000
FTUS43 KDMX 231135
TAFFOD
TAF
KFOD 231135Z 2312/2412 18011G16KT 6SM BR OVC012
     FM231400 22007KT 4SM -RA BR BKN007 OVC012
     FM231800 32008KT 5SM -RA BR BKN009 OVC015
     FM232200 33013G20KT 6SM -RA BR SCT009 OVC015
     FM240200 33015G25KT 5SM -SN BR OVC015=

USA.gov is the U.S. government's official web portal to all federal, state and local government web resources and services.